Elderon, Wisconsin
Current Conditions -  °F | °C
As of 9:45 PM on Friday 19 Dec 2014 (Local Time) from KCWA Reporting Station
Overcast Overcast  
Wind Chill: 23°   Ceiling: 900
Heat Index: 23°   Visibility: 10mi
Dew Point: 21°   Wind: 0mph
Humidity: 93%   Direction: NA
Pressure: 30.22"   Gusts: NA
Location:  44.78°N, 89.24°W
Report Text: KCWA 200345Z 00000KT 10SM BKN009 OVC075 M05/M06 A3022
Loading
Personal Weather Stations






























Interactive Weather Map New forecast layout! Learn more

10-Day Weather Forecast

Advertisements
Track Severe Weather on mobile